createdAt,value
2023-02-02T00:02:51.417Z,1.20
2023-02-02T00:06:53.920Z,1.03
2023-02-02T00:10:56.097Z,0.87
2023-02-02T00:14:58.335Z,0.60
2023-02-02T00:19:04.878Z,0.33
2023-02-02T00:23:07.057Z,0.60
2023-02-02T00:27:09.786Z,1.17
2023-02-02T00:31:12.255Z,0.47
2023-02-02T00:35:14.967Z,1.10
2023-02-02T00:39:21.636Z,0.90
2023-02-02T00:43:24.528Z,1.17
2023-02-02T00:47:26.857Z,1.10
2023-02-02T00:51:29.011Z,1.33
2023-02-02T00:55:31.178Z,1.20
2023-02-02T00:59:33.612Z,0.70
2023-02-02T01:03:35.793Z,0.53
2023-02-02T01:07:38.383Z,1.10
2023-02-02T01:11:40.583Z,0.53
2023-02-02T01:15:43.631Z,0.60
2023-02-02T01:19:46.076Z,0.57
2023-02-02T01:23:48.426Z,0.63
2023-02-02T01:27:50.766Z,1.37
2023-02-02T01:31:53.188Z,0.53
2023-02-02T01:35:56.041Z,0.83
2023-02-02T01:39:58.621Z,0.73
2023-02-02T01:44:02.546Z,1.00
2023-02-02T01:48:04.758Z,0.77
2023-02-02T01:52:07.226Z,0.60
2023-02-02T01:56:10.791Z,0.83
2023-02-02T02:00:15.035Z,1.30
2023-02-02T02:04:17.175Z,0.73
2023-02-02T02:08:21.554Z,0.30
2023-02-02T02:12:23.966Z,0.40
2023-02-02T02:16:39.563Z,1.00
2023-02-02T02:20:59.342Z,1.00
2023-02-02T02:25:07.467Z,0.80
2023-02-02T02:29:09.604Z,1.70
2023-02-02T02:33:19.882Z,0.50
2023-02-02T02:37:31.975Z,1.07
2023-02-02T02:41:38.677Z,0.90
2023-02-02T02:45:41.700Z,0.53
2023-02-02T02:49:46.366Z,0.27
2023-02-02T02:53:48.892Z,0.70
2023-02-02T02:58:02.211Z,1.00
2023-02-02T03:02:15.590Z,0.63
2023-02-02T03:06:23.350Z,1.43
2023-02-02T03:10:28.653Z,0.63
2023-02-02T03:14:35.010Z,0.97
2023-02-02T03:18:37.598Z,0.30
2023-02-02T03:22:40.096Z,0.50
2023-02-02T03:26:42.417Z,0.67
2023-02-02T03:30:45.250Z,0.73
2023-02-02T03:34:47.373Z,0.83
2023-02-02T03:38:49.583Z,0.70
2023-02-02T03:42:51.704Z,0.87
2023-02-02T03:46:54.337Z,0.33
2023-02-02T03:50:56.630Z,0.47
2023-02-02T03:54:58.843Z,1.00
2023-02-02T03:59:01.002Z,1.00
2023-02-02T04:03:03.246Z,0.73
2023-02-02T04:07:05.494Z,0.67
2023-02-02T04:11:10.210Z,0.57
2023-02-02T04:15:12.453Z,0.60
2023-02-02T04:19:14.612Z,0.77
2023-02-02T04:23:16.711Z,0.87
2023-02-02T04:27:18.846Z,0.77
2023-02-02T04:31:21.048Z,0.80
2023-02-02T04:35:23.601Z,0.90
2023-02-02T04:39:26.051Z,0.70
2023-02-02T04:43:28.166Z,0.60
2023-02-02T04:47:30.618Z,0.33
2023-02-02T04:51:32.748Z,0.53
2023-02-02T04:55:38.169Z,0.77
2023-02-02T04:59:42.318Z,0.53
2023-02-02T05:03:44.890Z,0.53
2023-02-02T05:07:47.040Z,0.73
2023-02-02T05:11:49.182Z,0.73
2023-02-02T05:15:51.320Z,0.80
2023-02-02T05:19:53.487Z,0.50
2023-02-02T05:23:55.745Z,1.10
2023-02-02T05:27:57.894Z,0.80
2023-02-02T05:32:00.065Z,0.80
2023-02-02T05:36:02.260Z,0.30
2023-02-02T05:40:05.135Z,0.80
2023-02-02T05:44:07.243Z,0.23
2023-02-02T05:48:10.740Z,1.00
2023-02-02T05:52:16.702Z,0.37
2023-02-02T05:56:18.839Z,0.37
2023-02-02T06:00:21.181Z,0.23
2023-02-02T06:04:23.310Z,0.40
2023-02-02T06:08:25.427Z,0.63
2023-02-02T06:12:27.586Z,1.00
2023-02-02T06:16:29.715Z,0.80
2023-02-02T06:20:31.915Z,0.60
2023-02-02T06:24:34.086Z,0.90
2023-02-02T06:28:36.259Z,0.40
2023-02-02T06:32:38.366Z,1.13
2023-02-02T06:36:40.724Z,0.53
2023-02-02T06:40:42.955Z,0.90
2023-02-02T06:44:45.143Z,0.30
2023-02-02T06:48:47.356Z,1.00
2023-02-02T06:52:52.988Z,0.50
2023-02-02T06:56:55.792Z,0.27
2023-02-02T07:01:08.796Z,0.70
2023-02-02T07:05:11.010Z,0.40
2023-02-02T07:09:13.471Z,1.10
2023-02-02T07:13:15.691Z,1.00
2023-02-02T07:17:17.819Z,0.80
2023-02-02T07:21:24.284Z,0.40
2023-02-02T07:25:26.766Z,0.67
2023-02-02T07:29:29.105Z,0.50
2023-02-02T07:33:31.316Z,0.90
2023-02-02T07:37:33.499Z,0.50
2023-02-02T07:41:36.415Z,0.50
2023-02-02T07:45:38.848Z,0.70
2023-02-02T07:49:41.195Z,0.93
2023-02-02T07:53:45.928Z,0.70
2023-02-02T07:57:48.175Z,0.73
2023-02-02T08:01:50.550Z,0.50
2023-02-02T08:05:52.829Z,0.80
2023-02-02T08:09:54.992Z,0.60
2023-02-02T08:14:00.794Z,0.77
2023-02-02T08:18:02.982Z,1.20
2023-02-02T08:22:05.163Z,0.20
2023-02-02T08:26:10.410Z,0.73
2023-02-02T08:30:12.915Z,0.70
2023-02-02T08:34:15.129Z,1.03
2023-02-02T08:38:17.310Z,0.53
2023-02-02T08:42:19.504Z,0.60
2023-02-02T08:46:22.221Z,0.40
2023-02-02T08:50:24.520Z,0.23
2023-02-02T08:54:26.673Z,0.47
2023-02-02T08:58:29.282Z,0.97
2023-02-02T09:02:31.614Z,0.70
2023-02-02T09:06:35.288Z,0.97
2023-02-02T09:10:39.324Z,0.90
2023-02-02T09:14:41.472Z,0.87
2023-02-02T09:18:44.028Z,0.60
2023-02-02T09:22:46.182Z,0.57
2023-02-02T09:26:48.426Z,0.83
2023-02-02T09:30:50.629Z,0.60
2023-02-02T09:34:52.867Z,0.60
2023-02-02T09:38:55.018Z,0.67
2023-02-02T09:43:08.602Z,0.60
2023-02-02T09:47:13.665Z,1.00
2023-02-02T09:51:19.220Z,0.90
2023-02-02T09:55:44.381Z,0.70
2023-02-02T09:59:48.395Z,0.87
2023-02-02T10:03:59.137Z,0.47
2023-02-02T10:08:02.694Z,0.70
2023-02-02T10:12:10.719Z,0.80
2023-02-02T10:16:18.173Z,0.77
2023-02-02T10:20:26.691Z,1.17
2023-02-02T10:24:29.669Z,0.60
2023-02-02T10:28:34.715Z,0.50
2023-02-02T10:32:45.977Z,0.53
2023-02-02T10:36:54.226Z,0.50
2023-02-02T10:41:07.633Z,0.60
2023-02-02T10:45:18.515Z,0.30
2023-02-02T10:49:23.731Z,0.90
2023-02-02T10:53:28.828Z,0.50
2023-02-02T10:57:40.137Z,0.40
2023-02-02T11:01:42.387Z,0.30
2023-02-02T11:05:44.554Z,0.30
2023-02-02T11:09:47.123Z,0.50
2023-02-02T11:14:00.715Z,0.40
2023-02-02T11:18:26.278Z,0.87
2023-02-02T11:22:31.588Z,0.80
2023-02-02T11:26:47.976Z,0.37
2023-02-02T11:30:51.481Z,0.77
2023-02-02T11:35:08.934Z,1.10
2023-02-02T11:39:20.669Z,0.80
2023-02-02T11:43:30.253Z,0.90
2023-02-02T11:47:33.348Z,1.10
2023-02-02T11:51:35.833Z,0.83
2023-02-02T11:55:38.050Z,0.70
2023-02-02T11:59:41.693Z,1.17
2023-02-02T12:03:48.348Z,1.03
2023-02-02T12:07:50.541Z,0.50
2023-02-02T12:11:55.472Z,0.67
2023-02-02T12:16:25.444Z,0.70
2023-02-02T12:20:30.813Z,0.60
2023-02-02T12:24:38.468Z,0.40
2023-02-02T12:29:05.866Z,2.50
2023-02-02T12:33:08.020Z,1.23
2023-02-02T12:37:16.753Z,0.60
2023-02-02T12:41:25.153Z,0.37
2023-02-02T12:45:39.624Z,0.50
2023-02-02T12:50:02.018Z,1.73
2023-02-02T12:54:33.553Z,0.60
2023-02-02T12:58:38.677Z,0.97
2023-02-02T13:02:56.129Z,0.30
2023-02-02T13:07:07.436Z,1.03
2023-02-02T13:11:18.321Z,0.90
2023-02-02T13:15:23.890Z,1.10
2023-02-02T13:19:37.627Z,0.70
2023-02-02T13:23:45.139Z,1.07
2023-02-02T13:27:47.553Z,0.97
2023-02-02T13:31:56.010Z,0.63
2023-02-02T13:36:16.631Z,0.60
2023-02-02T13:40:18.795Z,0.87
2023-02-02T13:44:20.976Z,4.23
2023-02-02T13:48:28.377Z,0.70
2023-02-02T13:52:50.466Z,0.60
2023-02-02T13:57:05.003Z,0.53
2023-02-02T14:01:08.619Z,0.30
2023-02-02T14:05:21.586Z,0.40
2023-02-02T14:09:25.595Z,0.70
2023-02-02T14:13:32.401Z,0.80
2023-02-02T14:17:34.531Z,0.47
2023-02-02T14:21:36.690Z,3.13
2023-02-02T14:26:02.095Z,0.60
2023-02-02T14:30:15.104Z,0.60
2023-02-02T14:34:32.290Z,0.47
2023-02-02T14:38:40.931Z,0.80
2023-02-02T14:43:01.577Z,0.70
2023-02-02T14:47:03.871Z,0.43
2023-02-02T14:51:12.865Z,0.63
2023-02-02T14:55:19.469Z,0.80
2023-02-02T14:59:27.811Z,0.83
2023-02-02T15:03:48.058Z,0.73
2023-02-02T15:07:53.851Z,0.43
2023-02-02T15:12:02.185Z,0.90
2023-02-02T15:16:10.906Z,1.80
2023-02-02T15:20:15.300Z,2.10
2023-02-02T15:24:19.826Z,0.70
2023-02-02T15:28:21.964Z,1.63
2023-02-02T15:32:25.547Z,1.07
2023-02-02T15:36:29.453Z,1.70
2023-02-02T15:40:32.849Z,1.20
2023-02-02T15:44:37.237Z,1.23
2023-02-02T15:48:39.841Z,0.93
2023-02-02T15:52:47.138Z,0.77
2023-02-02T15:56:49.412Z,1.00
2023-02-02T16:00:59.083Z,3.77
2023-02-02T16:05:01.415Z,0.77
2023-02-02T16:09:07.598Z,0.70
2023-02-02T16:13:17.843Z,0.57
2023-02-02T16:17:21.527Z,0.80
2023-02-02T16:21:25.604Z,0.77
2023-02-02T16:25:30.035Z,0.80
2023-02-02T16:29:32.286Z,2.03
2023-02-02T16:33:38.922Z,0.87
2023-02-02T16:37:41.082Z,1.00
2023-02-02T16:41:43.235Z,0.73
2023-02-02T16:45:48.463Z,0.87
2023-02-02T16:49:50.741Z,0.90
2023-02-02T16:53:52.955Z,0.80
2023-02-02T16:57:55.512Z,1.43
2023-02-02T17:01:59.612Z,0.97
2023-02-02T17:06:02.451Z,0.93
2023-02-02T17:10:16.950Z,1.00
2023-02-02T17:14:20.620Z,0.80
2023-02-02T17:18:22.742Z,0.80
2023-02-02T17:22:25.825Z,1.10
2023-02-02T17:26:28.064Z,2.30
2023-02-02T17:30:30.579Z,0.90
2023-02-02T17:34:32.847Z,1.13
2023-02-02T17:38:35.027Z,1.17
2023-02-02T17:42:37.166Z,1.20
2023-02-02T17:46:40.296Z,1.07
2023-02-02T17:50:42.985Z,1.30
2023-02-02T17:54:45.135Z,1.20
2023-02-02T17:58:47.274Z,0.87
2023-02-02T18:02:50.370Z,1.90
2023-02-02T18:06:52.609Z,1.20
2023-02-02T18:10:54.809Z,1.40
2023-02-02T18:14:56.943Z,1.27
2023-02-02T18:18:59.099Z,1.23
2023-02-02T18:23:01.282Z,1.50
2023-02-02T18:27:03.445Z,1.33
2023-02-02T18:31:12.630Z,1.20
2023-02-02T18:35:14.825Z,1.30
2023-02-02T18:39:16.982Z,1.83
2023-02-02T18:43:19.121Z,1.70
2023-02-02T18:47:21.260Z,1.70
2023-02-02T18:51:23.426Z,6.13
2023-02-02T18:55:26.032Z,2.20
2023-02-02T18:59:28.287Z,1.80
2023-02-02T19:03:30.520Z,2.47
2023-02-02T19:07:33.246Z,2.00
2023-02-02T19:11:39.726Z,2.63
2023-02-02T19:15:42.233Z,2.20
2023-02-02T19:19:44.556Z,2.53
2023-02-02T19:23:46.719Z,2.87
2023-02-02T19:27:48.848Z,2.40
2023-02-02T19:31:59.311Z,2.27
2023-02-02T19:36:01.590Z,2.20
2023-02-02T19:40:09.608Z,2.73
2023-02-02T19:44:15.288Z,2.60
2023-02-02T19:48:19.092Z,2.40
2023-02-02T19:52:23.492Z,2.63
2023-02-02T19:56:27.295Z,2.43
2023-02-02T20:00:30.560Z,2.37
2023-02-02T20:04:32.876Z,3.20
2023-02-02T20:08:38.753Z,3.70
2023-02-02T20:12:41.156Z,3.33
2023-02-02T20:16:44.834Z,2.93
2023-02-02T20:20:48.717Z,3.67
2023-02-02T20:24:50.930Z,3.97
2023-02-02T20:28:54.692Z,4.10
2023-02-02T20:32:58.510Z,3.87
2023-02-02T20:37:00.607Z,3.97
2023-02-02T20:41:02.783Z,3.80
2023-02-02T20:45:05.239Z,4.20
2023-02-02T20:49:07.501Z,3.90
2023-02-02T20:53:09.693Z,3.83
2023-02-02T20:57:11.922Z,4.53
2023-02-02T21:01:14.154Z,4.43
2023-02-02T21:05:16.376Z,3.50
2023-02-02T21:09:18.634Z,3.63
2023-02-02T21:13:20.798Z,3.47
2023-02-02T21:17:23.130Z,4.03
2023-02-02T21:21:25.347Z,4.00
2023-02-02T21:25:27.576Z,3.13
2023-02-02T21:29:33.068Z,3.87
2023-02-02T21:33:35.384Z,4.20
2023-02-02T21:37:37.657Z,3.80
2023-02-02T21:41:39.830Z,4.13
2023-02-02T21:45:42.849Z,3.37
2023-02-02T21:49:45.071Z,3.63
2023-02-02T21:53:47.247Z,3.83
2023-02-02T21:57:49.466Z,3.53
2023-02-02T22:01:52.717Z,3.87
2023-02-02T22:06:02.287Z,3.93
2023-02-02T22:10:18.920Z,3.30
2023-02-02T22:14:22.705Z,2.80
2023-02-02T22:18:25.562Z,3.53
2023-02-02T22:22:32.850Z,3.03
2023-02-02T22:26:35.034Z,3.27
2023-02-02T22:30:38.404Z,2.73
2023-02-02T22:34:40.540Z,2.83
2023-02-02T22:38:42.680Z,2.40
2023-02-02T22:42:44.851Z,2.23
2023-02-02T22:46:47.038Z,2.83
2023-02-02T22:50:49.195Z,2.80
2023-02-02T22:54:51.428Z,2.73
2023-02-02T22:58:53.564Z,2.07
2023-02-02T23:02:56.549Z,2.43
2023-02-02T23:06:58.887Z,2.50
2023-02-02T23:11:01.172Z,3.03
2023-02-02T23:15:03.399Z,2.60
2023-02-02T23:19:05.680Z,2.37
2023-02-02T23:23:07.909Z,2.63
2023-02-02T23:27:10.098Z,3.10
2023-02-02T23:31:12.374Z,3.03
2023-02-02T23:35:14.644Z,3.37
2023-02-02T23:39:16.804Z,2.80
2023-02-02T23:43:18.955Z,3.13
2023-02-02T23:47:21.105Z,2.77
2023-02-02T23:51:23.712Z,2.60
2023-02-02T23:55:26.097Z,4.33
2023-02-02T23:59:28.340Z,3.13
